createdAt,value
2023-01-05T00:01:14.477Z,12.87
2023-01-05T00:05:19.336Z,9.50
2023-01-05T00:09:22.709Z,13.70
2023-01-05T00:13:43.655Z,10.90
2023-01-05T00:18:04.405Z,10.00
2023-01-05T00:22:34.853Z,10.80
2023-01-05T00:26:38.403Z,11.40
2023-01-05T00:30:43.520Z,10.50
2023-01-05T00:38:48.831Z,11.17
2023-01-05T00:42:52.865Z,10.20
2023-01-05T00:46:56.403Z,9.83
2023-01-05T00:51:00.182Z,9.67
2023-01-05T00:55:05.337Z,9.23
2023-01-05T00:59:09.165Z,11.27
2023-01-05T01:03:12.705Z,10.50
2023-01-05T01:07:16.455Z,8.80
2023-01-05T01:11:21.438Z,10.87
2023-01-05T01:15:25.133Z,9.87
2023-01-05T01:19:29.296Z,9.20
2023-01-05T01:23:34.246Z,11.80
2023-01-05T01:27:39.182Z,10.97
2023-01-05T01:31:42.719Z,10.10
2023-01-05T01:35:46.367Z,10.63
2023-01-05T01:39:51.011Z,10.07
2023-01-05T01:43:57.632Z,9.23
2023-01-05T01:48:02.876Z,10.23
2023-01-05T01:52:06.931Z,9.70
2023-01-05T01:56:14.883Z,11.10
2023-01-05T02:00:21.681Z,8.90
2023-01-05T02:04:26.934Z,8.97
2023-01-05T02:08:32.539Z,10.13
2023-01-05T02:12:45.616Z,10.97
2023-01-05T02:17:03.116Z,11.37
2023-01-05T02:21:20.205Z,10.33
2023-01-05T02:25:50.099Z,10.03
2023-01-05T02:30:33.708Z,10.90
2023-01-05T02:34:44.029Z,10.80
2023-01-05T02:38:55.401Z,9.90
2023-01-05T02:42:59.700Z,11.30
2023-01-05T02:47:05.637Z,11.13
2023-01-05T02:51:15.297Z,12.17
2023-01-05T02:55:21.558Z,9.93
2023-01-05T02:59:29.871Z,9.70
2023-01-05T03:03:38.536Z,9.97
2023-01-05T03:07:45.726Z,9.53
2023-01-05T03:12:14.112Z,9.97
2023-01-05T03:16:23.050Z,9.80
2023-01-05T03:20:29.519Z,13.17
2023-01-05T03:24:52.840Z,9.63
2023-01-05T03:29:16.909Z,11.00
2023-01-05T03:33:44.447Z,12.30
2023-01-05T03:37:54.365Z,9.23
2023-01-05T03:42:00.253Z,10.43
2023-01-05T03:46:12.279Z,10.10
2023-01-05T03:50:15.859Z,10.27
2023-01-05T03:54:19.548Z,10.47
2023-01-05T03:58:24.488Z,10.30
2023-01-05T04:02:28.323Z,11.43
2023-01-05T04:06:31.917Z,10.40
2023-01-05T04:10:35.711Z,9.87
2023-01-05T04:14:40.716Z,10.57
2023-01-05T04:18:44.415Z,11.90
2023-01-05T04:22:47.930Z,10.07
2023-01-05T04:26:51.608Z,10.43
2023-01-05T04:30:57.618Z,8.60
2023-01-05T04:35:07.074Z,9.40
2023-01-05T04:40:06.686Z,10.33
2023-01-05T04:44:10.357Z,10.10
2023-01-05T04:48:15.095Z,9.40
2023-01-05T04:52:18.565Z,9.63
2023-01-05T04:56:21.876Z,9.30
2023-01-05T05:00:25.341Z,8.47
2023-01-05T05:04:29.986Z,10.93
2023-01-05T05:08:33.308Z,8.73
2023-01-05T05:12:36.846Z,10.37
2023-01-05T05:16:40.177Z,11.83
2023-01-05T05:20:50.029Z,11.70
2023-01-05T05:24:53.323Z,10.87
2023-01-05T05:28:58.577Z,15.50
2023-01-05T05:33:01.937Z,11.87
2023-01-05T05:37:06.861Z,9.87
2023-01-05T05:41:10.274Z,9.90
2023-01-05T05:45:14.740Z,9.20
2023-01-05T05:49:18.157Z,8.33
2023-01-05T05:53:23.063Z,9.13
2023-01-05T05:57:26.451Z,8.30
2023-01-05T06:01:31.204Z,8.33
2023-01-05T06:05:34.653Z,9.07
2023-01-05T06:09:39.388Z,10.70
2023-01-05T06:13:43.152Z,11.40
2023-01-05T06:17:48.537Z,9.20
2023-01-05T06:21:52.027Z,9.17
2023-01-05T06:25:56.777Z,11.53
2023-01-05T06:30:00.244Z,10.37
2023-01-05T06:34:03.624Z,10.00
2023-01-05T06:38:07.057Z,10.93
2023-01-05T06:42:12.101Z,12.00
2023-01-05T06:46:15.431Z,11.67
2023-01-05T06:50:19.027Z,10.40
2023-01-05T06:54:22.364Z,10.37
2023-01-05T06:58:27.196Z,12.73
2023-01-05T07:02:30.475Z,12.30
2023-01-05T07:06:35.173Z,11.80
2023-01-05T07:10:38.455Z,15.60
2023-01-05T07:14:44.678Z,15.67
2023-01-05T07:18:49.114Z,15.50
2023-01-05T07:22:52.406Z,17.27
2023-01-05T07:26:55.828Z,12.83
2023-01-05T07:31:00.699Z,12.50
2023-01-05T07:35:04.001Z,13.33
2023-01-05T07:39:07.387Z,15.97
2023-01-05T07:43:10.967Z,11.97
2023-01-05T07:47:15.613Z,15.20
2023-01-05T07:51:19.313Z,20.17
2023-01-05T07:55:22.842Z,25.50
2023-01-05T07:59:26.389Z,21.30
2023-01-05T08:03:31.091Z,16.87
2023-01-05T08:07:34.781Z,17.50
2023-01-05T08:11:38.267Z,16.60
2023-01-05T08:15:46.073Z,16.57
2023-01-05T08:19:53.870Z,14.33
2023-01-05T08:23:59.450Z,13.73
2023-01-05T08:28:02.884Z,18.27
2023-01-05T08:32:06.699Z,17.70
2023-01-05T08:36:16.383Z,20.57
2023-01-05T08:40:20.109Z,15.63
2023-01-05T08:44:23.365Z,13.43
2023-01-05T08:48:27.660Z,13.37
2023-01-05T08:52:32.414Z,13.13
2023-01-05T08:56:39.098Z,10.40
2023-01-05T09:00:44.130Z,11.90
2023-01-05T09:04:47.775Z,11.07
2023-01-05T09:08:52.611Z,10.27
2023-01-05T09:58:42.944Z,6.23
2023-01-05T10:02:51.595Z,5.87
2023-01-05T10:06:58.716Z,5.30
2023-01-05T10:11:23.980Z,5.33
2023-01-05T10:15:31.004Z,5.90
2023-01-05T10:19:35.885Z,6.50
2023-01-05T10:23:57.365Z,5.00
2023-01-05T10:28:12.256Z,5.43
2023-01-05T10:32:28.245Z,5.27
2023-01-05T10:37:08.038Z,10.20
2023-01-05T10:41:20.046Z,4.50
2023-01-05T10:45:25.207Z,2.33
2023-01-05T10:49:33.383Z,2.77
2023-01-05T10:53:39.493Z,2.20
2023-01-05T10:57:43.368Z,2.80
2023-01-05T11:01:50.321Z,3.00
2023-01-05T11:05:55.323Z,5.63
2023-01-05T11:09:58.982Z,4.83
2023-01-05T11:14:02.817Z,6.00
2023-01-05T11:18:06.815Z,4.93
2023-01-05T11:22:32.297Z,6.83
2023-01-05T11:26:37.008Z,5.33
2023-01-05T11:30:48.527Z,5.50
2023-01-05T11:34:52.938Z,6.40
2023-01-05T11:38:59.465Z,6.47
2023-01-05T11:43:12.116Z,9.33
2023-01-05T11:47:23.758Z,10.70
2023-01-05T11:51:37.919Z,10.70
2023-01-05T11:55:43.070Z,11.13
2023-01-05T11:59:48.531Z,9.50
2023-01-05T12:04:04.456Z,10.33
2023-01-05T12:08:15.488Z,13.13
2023-01-05T12:12:37.235Z,13.03
2023-01-05T12:16:48.993Z,13.13
2023-01-05T12:21:07.748Z,13.40
2023-01-05T12:25:22.029Z,10.97
2023-01-05T12:34:41.458Z,11.97
2023-01-05T12:38:56.387Z,11.37
2023-01-05T12:43:03.458Z,11.33
2023-01-05T12:47:23.029Z,11.80
2023-01-05T12:51:32.873Z,11.47
2023-01-05T12:55:41.716Z,11.73
2023-01-05T12:59:54.372Z,12.23
2023-01-05T13:04:04.516Z,11.37
2023-01-05T13:08:16.466Z,12.70
2023-01-05T13:12:21.114Z,11.77
2023-01-05T13:16:28.882Z,11.30
2023-01-05T13:20:47.554Z,10.80
2023-01-05T13:24:54.245Z,10.90
2023-01-05T13:29:01.641Z,11.80
2023-01-05T13:33:41.159Z,11.07
2023-01-05T13:38:18.849Z,10.57
2023-01-05T13:42:51.159Z,12.40
2023-01-05T13:47:11.816Z,14.43
2023-01-05T13:51:33.899Z,13.97
2023-01-05T13:55:46.247Z,18.00
2023-01-05T14:00:04.749Z,17.50
2023-01-05T14:04:21.432Z,15.40
2023-01-05T14:08:28.192Z,14.73
2023-01-05T14:12:54.487Z,15.80
2023-01-05T14:16:58.091Z,19.40
2023-01-05T14:21:12.222Z,8.37
2023-01-05T14:25:52.937Z,3.80
2023-01-05T14:30:20.725Z,1.50
2023-01-05T14:34:27.452Z,0.67
2023-01-05T14:38:36.462Z,2.27
2023-01-05T14:42:40.801Z,0.77
2023-01-05T14:46:48.567Z,1.17
2023-01-05T14:51:09.907Z,0.70
2023-01-05T14:55:37.566Z,0.87
2023-01-05T14:59:43.164Z,0.57
2023-01-05T15:03:53.012Z,7.23
2023-01-05T15:08:08.269Z,1.80
2023-01-05T15:12:45.690Z,2.43
2023-01-05T15:17:20.497Z,2.53
2023-01-05T15:21:47.883Z,1.30
2023-01-05T15:26:09.123Z,1.40
2023-01-05T15:30:32.459Z,3.27
2023-01-05T15:34:42.118Z,1.27
2023-01-05T15:38:50.941Z,1.20
2023-01-05T15:42:57.552Z,1.27
2023-01-05T15:47:02.870Z,1.50
2023-01-05T15:51:07.760Z,2.10
2023-01-05T15:55:18.627Z,2.17
2023-01-05T15:59:27.102Z,2.13
2023-01-05T16:03:33.071Z,1.90
2023-01-05T16:07:36.518Z,1.87
2023-01-05T16:11:44.915Z,2.13
2023-01-05T16:15:52.023Z,1.43
2023-01-05T16:19:58.700Z,1.70
2023-01-05T16:24:07.869Z,3.37
2023-01-05T16:28:21.130Z,2.30
2023-01-05T16:32:33.650Z,2.13
2023-01-05T16:36:37.183Z,2.37
2023-01-05T16:40:57.936Z,2.50
2023-01-05T16:45:03.239Z,2.40
2023-01-05T16:49:29.177Z,2.53
2023-01-05T16:53:33.802Z,2.90
2023-01-05T16:57:43.233Z,2.03
2023-01-05T17:01:47.963Z,1.53
2023-01-05T17:05:53.274Z,2.20
2023-01-05T17:09:56.720Z,2.10
2023-01-05T17:14:01.882Z,1.20
2023-01-05T17:18:16.757Z,1.53
2023-01-05T17:22:20.301Z,1.60
2023-01-05T17:26:33.801Z,1.87
2023-01-05T17:30:37.335Z,2.17
2023-01-05T17:34:42.578Z,1.70
2023-01-05T17:38:47.422Z,2.10
2023-01-05T17:42:52.418Z,2.33
2023-01-05T17:46:56.376Z,2.20
2023-01-05T17:51:01.509Z,3.00
2023-01-05T17:55:05.164Z,2.90
2023-01-05T17:59:09.046Z,3.47
2023-01-05T18:03:16.281Z,3.70
2023-01-05T18:07:21.040Z,3.30
2023-01-05T18:11:24.693Z,2.60
2023-01-05T18:15:28.594Z,2.60
2023-01-05T18:19:33.639Z,3.10
2023-01-05T18:23:38.703Z,1.80
2023-01-05T18:27:42.394Z,2.43
2023-01-05T18:31:46.860Z,2.00
2023-01-05T18:40:06.802Z,8.07
2023-01-05T18:44:10.831Z,7.87
2023-01-05T18:48:15.099Z,6.57
2023-01-05T18:52:18.681Z,6.90
2023-01-05T18:56:23.829Z,5.93
2023-01-05T19:00:28.363Z,5.90
2023-01-05T19:04:33.078Z,7.40
2023-01-05T19:08:40.360Z,6.73
2023-01-05T19:12:45.261Z,7.80
2023-01-05T19:16:49.085Z,7.53
2023-01-05T19:20:59.101Z,7.13
2023-01-05T19:25:03.389Z,7.17
2023-01-05T19:29:08.955Z,8.03
2023-01-05T19:33:12.496Z,6.70
2023-01-05T19:37:16.355Z,7.90
2023-01-05T19:41:22.568Z,7.30
2023-01-05T19:45:29.020Z,8.37
2023-01-05T19:49:33.130Z,7.67
2023-01-05T19:53:38.804Z,8.10
2023-01-05T19:57:42.558Z,8.70
2023-01-05T20:01:47.885Z,7.27
2023-01-05T20:05:54.204Z,8.77
2023-01-05T20:09:58.395Z,7.73
2023-01-05T20:14:02.507Z,7.60
2023-01-05T20:18:09.370Z,7.87
2023-01-05T20:22:16.036Z,7.50
2023-01-05T20:26:28.820Z,8.10
2023-01-05T20:30:35.767Z,8.70
2023-01-05T20:34:42.597Z,8.83
2023-01-05T20:38:47.161Z,9.90
2023-01-05T20:42:51.861Z,10.03
2023-01-05T20:46:56.404Z,9.07
2023-01-05T20:51:06.086Z,8.67
2023-01-05T20:55:10.360Z,9.53
2023-01-05T20:59:17.918Z,9.77
2023-01-05T21:03:22.158Z,10.03
2023-01-05T21:07:28.040Z,9.50
2023-01-05T21:11:31.541Z,8.63
2023-01-05T21:15:35.811Z,10.77
2023-01-05T21:19:40.639Z,10.03
2023-01-05T21:23:47.930Z,9.03
2023-01-05T21:27:52.084Z,12.03
2023-01-05T21:31:58.647Z,11.13
2023-01-05T21:36:02.200Z,12.43
2023-01-05T21:40:10.205Z,10.40
2023-01-05T21:44:20.151Z,10.43
2023-01-05T21:48:25.672Z,9.77
2023-01-05T21:52:46.631Z,10.77
2023-01-05T21:56:51.525Z,9.93
2023-01-05T22:01:00.716Z,10.60
2023-01-05T22:05:05.358Z,10.47
2023-01-05T22:09:09.719Z,15.80
2023-01-05T22:13:16.865Z,15.13
2023-01-05T22:17:20.690Z,14.63
2023-01-05T22:21:24.513Z,15.77
2023-01-05T22:25:28.628Z,15.37
2023-01-05T22:29:34.093Z,16.23
2023-01-05T22:33:39.548Z,14.27
2023-01-05T22:37:43.112Z,14.60
2023-01-05T22:41:47.653Z,14.00
2023-01-05T22:45:53.523Z,12.90
2023-01-05T22:49:57.423Z,13.37
2023-01-05T22:54:01.844Z,12.87
2023-01-05T22:58:07.400Z,14.33
2023-01-05T23:02:12.573Z,12.37
2023-01-05T23:06:16.799Z,11.90
2023-01-05T23:10:22.272Z,13.63
2023-01-05T23:14:26.531Z,12.43
2023-01-05T23:18:31.931Z,10.73
2023-01-05T23:22:37.358Z,11.50
2023-01-05T23:26:40.767Z,12.67
2023-01-05T23:30:44.418Z,11.57
2023-01-05T23:34:50.707Z,10.80
2023-01-05T23:38:55.020Z,11.60
2023-01-05T23:42:58.667Z,10.93
2023-01-05T23:47:02.622Z,10.67
2023-01-05T23:51:13.680Z,10.80
2023-01-05T23:55:17.588Z,11.00
2023-01-05T23:59:21.401Z,10.50
